Time;durP1;ratioP1;P1;durP2;ratioP2;P2;SDS_P1;SDS_P2;PMS_P1;PMS_P2;Temp;Humidity;BMP_temperature;BMP_pressure;BME280_temperature;BME280_humidity;BME280_pressure;Samples;Min_cycle;Max_cycle;Signal;HPM_P1;HPM_P2
2023/05/22 00:00:15;;;;;;;4.68;2.97;;;;;;;16.98;43.02;100785.38;5105366;28;20675;-65
2023/05/22 00:02:43;;;;;;;5.85;3.33;;;;;;;16.99;42.42;100782.72;5103903;27;20617;-65
2023/05/22 00:05:13;;;;;;;4.80;2.72;;;;;;;17.01;42.49;100777.44;5109022;28;20567;-65
2023/05/22 00:07:41;;;;;;;6.43;2.70;;;;;;;17.01;42.07;100777.44;5108993;28;20745;-66
2023/05/22 00:10:11;;;;;;;3.92;2.75;;;;;;;17.06;41.90;100775.59;5106063;27;20191;-66
2023/05/22 00:12:39;;;;;;;4.75;2.75;;;;;;;17.09;41.56;100772.91;5110755;28;20206;-67
2023/05/22 00:15:08;;;;;;;4.15;2.15;;;;;;;17.11;41.66;100771.97;5110714;27;20196;-69
2023/05/22 00:17:37;;;;;;;6.90;2.72;;;;;;;17.14;41.57;100765.81;5113496;28;20200;-67
2023/05/22 00:20:09;;;;;;;4.15;2.22;;;;;;;17.16;41.69;100771.88;5110836;27;20674;-66
2023/05/22 00:22:37;;;;;;;4.60;2.33;;;;;;;17.17;41.35;100763.13;5113426;28;20720;-66
2023/05/22 00:25:07;;;;;;;3.90;2.85;;;;;;;17.19;42.06;100765.69;5107955;28;20647;-64
2023/05/22 00:27:35;;;;;;;3.35;2.60;;;;;;;17.21;41.57;100766.53;5110540;27;20211;-65
2023/05/22 00:30:07;;;;;;;4.50;2.60;;;;;;;17.25;41.50;100768.13;5108913;28;20205;-65
2023/05/22 00:32:35;;;;;;;3.83;2.42;;;;;;;17.25;41.47;100761.19;5111412;28;20255;-68
2023/05/22 00:35:07;;;;;;;5.20;2.78;;;;;;;17.27;41.75;100767.22;5109801;27;20207;-65
2023/05/22 00:37:35;;;;;;;4.63;2.85;;;;;;;17.26;41.73;100762.03;5108645;28;20215;-66
2023/05/22 00:40:04;;;;;;;3.88;2.80;;;;;;;17.26;42.41;100762.88;5111947;27;20219;-66
2023/05/22 00:42:32;;;;;;;4.35;2.83;;;;;;;17.27;42.35;100764.59;5108800;28;20242;-64
2023/05/22 00:45:00;;;;;;;3.65;2.53;;;;;;;17.26;41.65;100762.88;5107590;27;20628;-65
2023/05/22 00:47:28;;;;;;;2.70;2.45;;;;;;;17.25;41.62;100763.78;5113032;28;20196;-66
2023/05/22 00:49:57;;;;;;;2.88;2.53;;;;;;;17.22;41.08;100760.41;5112022;27;20196;-65
2023/05/22 00:52:26;;;;;;;3.05;2.17;;;;;;;17.21;41.50;100762.16;5112251;28;20204;-65
2023/05/22 00:54:54;;;;;;;2.50;2.30;;;;;;;17.20;41.12;100767.41;5113142;28;20210;-65
2023/05/22 00:57:23;;;;;;;5.50;2.92;;;;;;;17.18;41.20;100767.44;5112065;27;20236;-68
2023/05/22 00:59:51;;;;;;;6.22;2.20;;;;;;;17.16;41.12;100769.25;5108475;27;20227;-65
2023/05/22 01:02:20;;;;;;;7.13;2.30;;;;;;;17.12;40.78;100765.00;5109517;27;20651;-65
2023/05/22 01:04:48;;;;;;;4.75;2.53;;;;;;;17.12;41.39;100770.22;5110923;28;20215;-65
2023/05/22 01:07:17;;;;;;;5.22;2.63;;;;;;;17.10;41.39;100762.44;5111928;28;20217;-65
2023/05/22 01:09:46;;;;;;;4.30;2.75;;;;;;;17.09;41.50;100765.97;5110754;27;20569;-64
2023/05/22 01:12:23;;;;;;;3.53;2.35;;;;;;;17.09;41.27;100765.97;5111068;28;20369;-67
2023/05/22 01:14:59;;;;;;;4.20;2.60;;;;;;;17.08;41.34;100763.38;5105592;28;20199;-64
2023/05/22 01:17:33;;;;;;;5.43;2.60;;;;;;;17.09;41.61;100768.56;5102825;27;20199;-65
2023/05/22 01:20:13;;;;;;;7.70;2.80;;;;;;;17.08;41.88;100764.22;5106427;27;20214;-64
2023/05/22 01:23:32;;;;;;;6.18;2.60;;;;;;;17.05;41.55;100760.88;5111977;28;20647;-66
2023/05/22 01:26:32;;;;;;;2.83;2.35;;;;;;;17.04;41.58;100764.34;5101428;28;20239;-64
2023/05/22 01:29:36;;;;;;;2.72;2.47;;;;;;;17.03;41.40;100767.88;5104651;28;20195;-68
2023/05/22 01:32:10;;;;;;;3.97;2.65;;;;;;;16.99;41.58;100767.09;5110666;27;20231;-69
2023/05/22 01:34:42;;;;;;;2.95;2.28;;;;;;;16.96;41.08;100766.31;5096467;27;20199;-64
2023/05/22 01:37:13;;;;;;;2.25;2.05;;;;;;;16.97;40.85;100765.41;5106139;27;20626;-65
2023/05/22 01:39:43;;;;;;;3.95;2.13;;;;;;;16.96;40.59;100763.72;5111824;28;20214;-66
2023/05/22 01:42:11;;;;;;;3.42;2.20;;;;;;;16.95;40.35;100764.63;5109209;28;20214;-64
2023/05/22 01:44:39;;;;;;;4.03;2.33;;;;;;;16.94;40.28;100760.28;5109786;28;20203;-67
2023/05/22 01:47:09;;;;;;;3.55;2.25;;;;;;;16.94;40.91;100755.97;5110531;27;20540;-66
2023/05/22 01:49:38;;;;;;;2.58;2.38;;;;;;;16.90;41.19;100770.81;5108628;28;20279;-65
2023/05/22 01:52:12;;;;;;;4.15;2.50;;;;;;;16.87;41.57;100765.66;5107297;28;20200;-66
2023/05/22 01:54:51;;;;;;;2.63;2.33;;;;;;;16.84;41.09;100765.75;5102610;27;20202;-69
2023/05/22 01:57:27;;;;;;;3.05;2.47;;;;;;;16.80;41.23;100761.50;5105646;28;20250;-66
2023/05/22 02:00:06;;;;;;;2.75;2.50;;;;;;;16.74;41.51;100766.00;5110266;28;20210;-65
2023/05/22 02:02:37;;;;;;;3.85;2.50;;;;;;;16.72;41.54;100760.84;5104949;28;20203;-64
2023/05/22 02:05:09;;;;;;;4.75;2.38;;;;;;;16.70;41.98;100762.59;5108259;27;20231;-65
2023/05/22 02:07:39;;;;;;;4.32;2.33;;;;;;;16.69;42.64;100766.09;5109855;27;20670;-65
2023/05/22 02:10:10;;;;;;;4.05;2.53;;;;;;;16.69;42.54;100765.25;5105839;28;20202;-65
2023/05/22 02:12:39;;;;;;;3.10;2.60;;;;;;;16.66;42.93;100771.38;5102806;28;20652;-65
2023/05/22 02:15:08;;;;;;;3.42;1.90;;;;;;;16.63;42.32;100761.91;5106023;28;20211;-64
2023/05/22 02:17:40;;;;;;;4.00;2.58;;;;;;;16.60;42.97;100764.56;5107910;28;20287;-65
2023/05/22 02:20:13;;;;;;;5.00;2.33;;;;;;;16.59;44.32;100767.22;5109478;28;20264;-67
2023/05/22 02:22:43;;;;;;;3.15;2.40;;;;;;;16.58;43.58;100774.19;5106912;28;20208;-69
2023/05/22 02:25:13;;;;;;;2.55;2.35;;;;;;;16.61;43.98;100770.66;5108486;28;20562;-68
2023/05/22 02:27:42;;;;;;;4.47;2.15;;;;;;;16.59;44.20;100772.44;5110042;28;20737;-66
2023/05/22 02:30:11;;;;;;;3.63;2.15;;;;;;;16.54;44.39;100762.13;5099793;28;20196;-66
2023/05/22 02:32:41;;;;;;;3.72;2.63;;;;;;;16.46;44.99;100768.41;5107978;28;20227;-66
2023/05/22 02:35:10;;;;;;;7.38;2.78;;;;;;;16.37;45.08;100765.13;5107669;28;20667;-67
2023/05/22 02:37:38;;;;;;;3.88;2.53;;;;;;;16.34;45.78;100760.00;5097642;28;20643;-65
2023/05/22 02:40:07;;;;;;;3.78;2.75;;;;;;;16.32;45.33;100759.19;5110236;28;20220;-64
2023/05/22 02:42:35;;;;;;;2.72;2.38;;;;;;;16.29;45.96;100761.88;5109765;28;20203;-64
2023/05/22 02:45:04;;;;;;;3.95;3.03;;;;;;;16.25;46.67;100765.44;5099254;28;20200;-65
2023/05/22 02:47:32;;;;;;;6.03;2.60;;;;;;;16.17;47.03;100767.38;5106795;28;20207;-64
2023/05/22 02:50:01;;;;;;;4.78;2.70;;;;;;;16.10;46.40;100755.41;5110182;28;20191;-65
2023/05/22 02:52:29;;;;;;;5.20;3.03;;;;;;;16.06;47.11;100753.75;5108381;28;20573;-65
2023/05/22 02:54:57;;;;;;;3.97;3.00;;;;;;;16.02;47.47;100752.13;5105382;28;20273;-65
2023/05/22 02:57:25;;;;;;;5.10;2.50;;;;;;;15.98;47.15;100748.75;5111014;28;20202;-69
2023/05/22 02:59:53;;;;;;;3.75;2.70;;;;;;;15.97;47.75;100748.75;5109619;28;20206;-64
2023/05/22 03:02:21;;;;;;;4.80;2.55;;;;;;;15.94;48.31;100747.94;5107430;27;20218;-67
2023/05/22 03:04:49;;;;;;;6.50;3.08;;;;;;;15.94;47.52;100744.47;5114245;28;20221;-64
2023/05/22 03:07:20;;;;;;;4.13;2.90;;;;;;;15.89;47.72;100736.78;5114712;28;20218;-66
2023/05/22 03:09:48;;;;;;;4.95;3.58;;;;;;;15.85;48.24;100740.34;5113233;27;20196;-66
2023/05/22 03:12:16;;;;;;;4.63;2.67;;;;;;;15.86;48.66;100747.25;5114422;28;20200;-65
2023/05/22 03:14:44;;;;;;;4.88;3.20;;;;;;;15.86;49.33;100742.03;5112640;28;20577;-67
2023/05/22 03:17:12;;;;;;;3.92;3.10;;;;;;;15.87;49.73;100751.56;5110423;28;20196;-65
2023/05/22 03:19:41;;;;;;;5.70;3.25;;;;;;;15.89;49.75;100741.13;5113013;27;20204;-66
2023/05/22 03:22:09;;;;;;;3.35;2.80;;;;;;;15.94;50.02;100744.47;5112833;27;20998;-64
2023/05/22 03:24:38;;;;;;;5.07;3.30;;;;;;;15.94;50.12;100737.56;5111155;28;20245;-65
2023/05/22 03:27:06;;;;;;;6.20;2.75;;;;;;;15.96;50.63;100739.25;5112024;28;20558;-68
2023/05/22 03:29:35;;;;;;;4.85;2.83;;;;;;;15.97;50.70;100739.22;5111162;28;20220;-67
2023/05/22 03:32:03;;;;;;;5.68;2.47;;;;;;;16.00;50.48;100748.69;5106699;27;20311;-66
2023/05/22 03:34:31;;;;;;;5.03;2.72;;;;;;;16.00;50.32;100746.94;5111799;28;20700;-68
2023/05/22 03:36:59;;;;;;;5.80;3.40;;;;;;;16.01;50.56;100740.84;5116825;27;20714;-65
2023/05/22 03:39:27;;;;;;;5.43;2.63;;;;;;;16.03;50.84;100743.44;5114326;28;20666;-68
2023/05/22 03:41:57;;;;;;;4.65;3.22;;;;;;;16.05;50.62;100745.09;5106057;27;20223;-66
2023/05/22 03:44:25;;;;;;;4.68;3.22;;;;;;;16.09;50.36;100738.94;5111547;28;20678;-69
2023/05/22 03:46:53;;;;;;;5.05;3.13;;;;;;;16.12;50.32;100748.41;5112590;28;20200;-66
2023/05/22 03:49:21;;;;;;;4.70;2.92;;;;;;;16.14;50.43;100747.47;5112970;28;20231;-66
2023/05/22 03:51:49;;;;;;;5.25;3.88;;;;;;;16.22;50.20;100749.91;5100476;27;20295;-65
2023/05/22 03:54:17;;;;;;;5.03;3.78;;;;;;;16.23;49.77;100753.34;5111934;28;20245;-67
2023/05/22 03:56:45;;;;;;;11.63;4.18;;;;;;;16.24;50.14;100753.34;5104716;27;20846;-67
2023/05/22 03:59:15;;;;;;;9.10;4.32;;;;;;;16.28;50.89;100754.13;5114391;28;20219;-67
2023/05/22 04:01:45;;;;;;;9.10;4.93;;;;;;;16.31;51.51;100754.91;5111702;28;20234;-67
2023/05/22 04:04:13;;;;;;;10.00;5.22;;;;;;;16.26;51.82;100748.94;5112278;28;20204;-65
2023/05/22 04:06:42;;;;;;;8.40;6.15;;;;;;;16.21;52.56;100752.56;5114051;27;20616;-69
2023/05/22 04:09:11;;;;;;;11.95;5.43;;;;;;;16.17;52.73;100751.78;5110883;27;20210;-69
2023/05/22 04:11:40;;;;;;;5.88;5.00;;;;;;;16.15;53.49;100748.34;5112456;27;20540;-69
2023/05/22 04:14:09;;;;;;;8.48;5.85;;;;;;;16.15;53.02;100749.19;5113406;28;20754;-69
2023/05/22 04:16:38;;;;;;;7.43;4.88;;;;;;;16.24;53.06;100752.44;5112653;27;20289;-69
2023/05/22 04:19:08;;;;;;;9.05;5.75;;;;;;;16.32;52.86;100740.16;5114020;28;20208;-71
2023/05/22 04:21:37;;;;;;;6.70;4.47;;;;;;;16.40;51.83;100744.25;5106635;27;20220;-69
2023/05/22 04:24:08;;;;;;;7.68;4.68;;;;;;;16.45;52.13;100738.94;5108729;27;20214;-69
2023/05/22 04:26:37;;;;;;;8.05;4.47;;;;;;;16.56;51.90;100738.69;5110975;27;20577;-69
2023/05/22 04:29:09;;;;;;;7.65;5.00;;;;;;;16.63;51.88;100737.63;5114182;28;20290;-71
2023/05/22 04:31:38;;;;;;;6.90;5.10;;;;;;;16.68;51.96;100733.19;5112558;27;20232;-69
2023/05/22 04:34:06;;;;;;;10.57;5.30;;;;;;;16.73;51.39;100722.66;5113021;27;20661;-68
2023/05/22 04:36:34;;;;;;;9.73;5.80;;;;;;;16.79;51.09;100731.19;5110746;27;20212;-69
2023/05/22 04:39:02;;;;;;;9.55;5.47;;;;;;;16.83;50.91;100726.75;5107960;28;20230;-70
2023/05/22 04:41:31;;;;;;;9.52;5.50;;;;;;;16.92;51.01;100728.25;5111638;28;20219;-68
2023/05/22 04:43:59;;;;;;;10.02;5.47;;;;;;;17.02;50.26;100724.50;5110326;28;20233;-71
2023/05/22 04:46:27;;;;;;;6.55;4.90;;;;;;;17.14;49.68;100724.16;5103748;28;20641;-69
2023/05/22 04:49:00;;;;;;;8.43;4.75;;;;;;;17.33;48.98;100727.94;5107738;28;20204;-71
2023/05/22 04:51:30;;;;;;;7.22;4.75;;;;;;;17.54;48.69;100723.88;5102181;27;20206;-69
2023/05/22 04:53:58;;;;;;;8.45;5.60;;;;;;;17.75;47.77;100726.75;5104201;28;20204;-71
2023/05/22 04:56:26;;;;;;;7.18;4.70;;;;;;;17.95;47.35;100726.16;5101591;27;20196;-70
2023/05/22 04:59:07;;;;;;;7.68;4.75;;;;;;;18.23;46.61;100729.63;5107845;27;20210;-69
2023/05/22 05:01:36;;;;;;;9.20;5.13;;;;;;;18.49;45.57;100727.91;5106962;28;20224;-69
2023/05/22 05:04:06;;;;;;;5.53;4.18;;;;;;;18.90;44.08;100726.53;5111304;28;20199;-69
2023/05/22 05:06:34;;;;;;;6.13;4.30;;;;;;;19.58;42.37;100724.03;5108458;28;20215;-69
2023/05/22 05:09:02;;;;;;;5.68;4.45;;;;;;;20.31;40.40;100720.31;5105288;28;20647;-66
2023/05/22 05:11:30;;;;;;;6.20;3.80;;;;;;;20.70;38.64;100716.06;5101778;28;20196;-70
2023/05/22 05:13:58;;;;;;;3.95;3.50;;;;;;;21.21;38.17;100717.34;5109859;28;20207;-68
2023/05/22 05:16:27;;;;;;;10.07;3.90;;;;;;;22.02;36.40;100724.97;5110148;28;20284;-67
2023/05/22 05:18:55;;;;;;;8.77;3.63;;;;;;;22.94;35.32;100721.28;5111610;28;20234;-69
2023/05/22 05:21:26;;;;;;;7.30;4.30;;;;;;;23.92;33.36;100715.97;5111702;27;20717;-68
2023/05/22 05:23:54;;;;;;;5.82;4.38;;;;;;;25.33;30.99;100717.34;5099492;28;20211;-67
2023/05/22 05:26:22;;;;;;;9.25;3.65;;;;;;;26.89;29.05;100725.66;5105690;28;20204;-69
2023/05/22 05:28:51;;;;;;;6.80;4.00;;;;;;;28.14;26.93;100719.34;5106499;28;20678;-69
2023/05/22 05:31:19;;;;;;;5.88;4.05;;;;;;;29.21;25.09;100718.28;5110730;28;20191;-68
2023/05/22 05:33:47;;;;;;;9.45;3.67;;;;;;;29.95;24.14;100715.03;5114046;27;20219;-68
2023/05/22 05:36:16;;;;;;;7.93;3.83;;;;;;;30.93;22.68;100718.28;5110416;28;20204;-69
2023/05/22 05:38:45;;;;;;;6.72;3.85;;;;;;;31.68;21.58;100703.69;5109875;28;20550;-69
2023/05/22 05:41:13;;;;;;;4.82;3.63;;;;;;;32.41;21.20;100714.00;5110157;28;20494;-67
2023/05/22 05:43:41;;;;;;;5.53;4.13;;;;;;;32.50;21.01;100713.13;5100114;28;20656;-67
2023/05/22 05:46:10;;;;;;;6.35;3.92;;;;;;;32.50;21.13;100712.28;5100253;27;20327;-67
2023/05/22 05:48:38;;;;;;;7.53;4.07;;;;;;;32.57;20.58;100716.91;5102917;28;20208;-68
2023/05/22 05:51:06;;;;;;;12.18;4.10;;;;;;;32.57;20.65;100716.06;5108576;28;20208;-68
2023/05/22 05:53:35;;;;;;;8.20;3.85;;;;;;;32.62;20.84;100711.97;5110803;28;20225;-66
2023/05/22 05:56:06;;;;;;;8.48;4.35;;;;;;;31.49;20.71;100719.66;5103361;28;20210;-61
2023/05/22 05:58:34;;;;;;;7.25;4.07;;;;;;;30.75;22.67;100712.72;5094158;27;20591;-66
2023/05/22 06:01:03;;;;;;;6.18;3.90;;;;;;;31.33;22.23;100716.63;5110113;28;20211;-68
2023/05/22 06:03:31;;;;;;;6.32;4.20;;;;;;;32.75;20.98;100710.84;5104423;28;20215;-68
2023/05/22 06:05:59;;;;;;;5.85;3.80;;;;;;;33.81;19.75;100709.50;5104733;28;20549;-67
2023/05/22 06:08:28;;;;;;;7.25;4.38;;;;;;;34.50;19.02;100698.09;5109487;28;20203;-67
2023/05/22 06:10:56;;;;;;;4.20;3.58;;;;;;;34.99;18.24;100705.56;5109962;28;20647;-67
2023/05/22 06:13:25;;;;;;;8.75;3.85;;;;;;;35.15;17.91;100697.63;5105494;28;20673;-67
2023/05/22 06:15:53;;;;;;;6.72;4.10;;;;;;;34.46;18.46;100704.72;5096592;28;20199;-66
2023/05/22 06:18:22;;;;;;;7.28;4.05;;;;;;;34.01;18.56;100702.19;5104467;28;20216;-68
2023/05/22 06:20:50;;;;;;;5.63;3.47;;;;;;;34.13;18.47;100701.81;5108736;28;20204;-66
2023/05/22 06:23:18;;;;;;;7.68;4.13;;;;;;;34.49;18.56;100690.19;5106490;28;20208;-67
2023/05/22 06:25:46;;;;;;;6.22;4.40;;;;;;;34.73;18.62;100692.22;5110138;28;20204;-66
2023/05/22 06:28:14;;;;;;;4.50;3.72;;;;;;;34.61;18.53;100692.50;5111284;28;20203;-66
2023/05/22 06:30:43;;;;;;;5.88;3.58;;;;;;;33.99;18.59;100698.84;5098049;28;20208;-68
2023/05/22 06:33:13;;;;;;;8.25;3.55;;;;;;;33.42;19.07;100689.19;5104348;28;20223;-67
2023/05/22 06:35:41;;;;;;;10.73;3.90;;;;;;;33.31;18.55;100688.56;5109958;28;20281;-68
2023/05/22 06:38:09;;;;;;;5.97;3.78;;;;;;;33.25;18.55;100683.78;5110453;28;20203;-68
2023/05/22 06:40:37;;;;;;;6.88;3.58;;;;;;;32.71;18.94;100683.59;5108728;28;20658;-69
2023/05/22 06:43:06;;;;;;;9.57;3.60;;;;;;;31.99;19.37;100695.59;5107716;28;20554;-67
2023/05/22 06:45:36;;;;;;;5.63;3.22;;;;;;;31.67;19.97;100686.03;5110779;28;20215;-68
2023/05/22 06:48:06;;;;;;;6.65;3.00;;;;;;;31.21;20.69;100695.41;5100528;28;20639;-68
2023/05/22 06:50:34;;;;;;;7.93;3.30;;;;;;;30.95;21.20;100695.03;5101405;28;20286;-67
2023/05/22 06:53:02;;;;;;;8.90;3.75;;;;;;;30.79;21.45;100695.53;5107412;28;20216;-67
2023/05/22 06:55:30;;;;;;;5.55;3.85;;;;;;;31.03;21.13;100691.69;5106347;28;20208;-67
2023/05/22 06:57:58;;;;;;;6.20;3.55;;;;;;;31.67;19.73;100687.84;5103181;28;20204;-66
2023/05/22 07:00:26;;;;;;;6.75;3.30;;;;;;;32.70;19.11;100690.75;5099773;28;20690;-66
2023/05/22 07:02:54;;;;;;;7.45;3.70;;;;;;;33.72;18.19;100689.03;5094947;28;20358;-67
2023/05/22 07:05:23;;;;;;;4.20;3.10;;;;;;;34.38;17.07;100677.91;5100457;28;20210;-67
2023/05/22 07:07:51;;;;;;;5.50;2.97;;;;;;;34.50;16.93;100682.03;5103505;28;20204;-66
2023/05/22 07:10:19;;;;;;;4.68;3.25;;;;;;;34.91;16.04;100676.91;5094090;28;20208;-67
2023/05/22 07:12:47;;;;;;;6.70;2.78;;;;;;;35.11;16.14;100672.16;5107940;28;20218;-67
2023/05/22 07:15:15;;;;;;;9.27;3.30;;;;;;;35.21;15.76;100672.03;5112319;28;20205;-67
2023/05/22 07:17:44;;;;;;;7.13;2.25;;;;;;;34.78;15.81;100679.19;5107253;28;20577;-67
2023/05/22 07:20:14;;;;;;;6.22;2.58;;;;;;;33.71;15.90;100679.31;5106416;28;20204;-66
2023/05/22 07:22:46;;;;;;;8.88;2.75;;;;;;;33.61;16.48;100680.22;5100259;28;20224;-66
2023/05/22 07:25:14;;;;;;;5.05;2.70;;;;;;;33.94;16.28;100675.19;5102658;28;20526;-66
2023/05/22 07:27:42;;;;;;;2.25;2.05;;;;;;;34.03;15.86;100678.81;5097214;28;20218;-67
2023/05/22 07:30:11;;;;;;;3.33;1.90;;;;;;;34.17;15.63;100675.56;5105611;28;20647;-68
2023/05/22 07:32:39;;;;;;;3.47;2.30;;;;;;;34.23;15.66;100674.13;5097998;28;20351;-65
2023/05/22 07:35:09;;;;;;;3.42;2.00;;;;;;;34.09;15.12;100672.84;5105311;28;20200;-67
2023/05/22 07:37:37;;;;;;;2.83;2.08;;;;;;;33.90;15.07;100671.13;5100985;28;20651;-69
2023/05/22 07:40:09;;;;;;;3.85;1.77;;;;;;;33.54;15.75;100672.97;5104553;28;20208;-69
2023/05/22 07:42:38;;;;;;;4.55;2.10;;;;;;;33.33;16.37;100673.22;5096537;28;20200;-67
2023/05/22 07:45:07;;;;;;;2.55;2.00;;;;;;;32.78;16.37;100671.34;5106321;28;20200;-66
2023/05/22 07:47:35;;;;;;;3.30;1.73;;;;;;;31.97;17.47;100671.75;5087505;28;20207;-69
2023/05/22 07:50:03;;;;;;;4.30;2.00;;;;;;;31.36;18.05;100660.44;5103699;28;20211;-67
2023/05/22 07:52:31;;;;;;;2.05;1.83;;;;;;;30.44;18.59;100673.72;5101536;28;20295;-69
2023/05/22 07:55:01;;;;;;;3.38;1.65;;;;;;;29.66;19.15;100666.94;5107717;28;20211;-72
2023/05/22 07:57:31;;;;;;;4.35;1.90;;;;;;;29.11;19.57;100666.88;5092209;28;20207;-72
2023/05/22 07:59:59;;;;;;;4.03;2.00;;;;;;;28.38;20.44;100671.59;5104281;28;20731;-71
2023/05/22 08:02:27;;;;;;;4.65;2.00;;;;;;;27.51;20.83;100664.81;5100997;28;20675;-71
2023/05/22 08:04:55;;;;;;;3.88;1.65;;;;;;;26.60;22.19;100670.31;5104476;28;20678;-70
2023/05/22 08:07:24;;;;;;;1.58;1.48;;;;;;;25.85;22.84;100672.69;5104354;28;20200;-70
2023/05/22 08:09:52;;;;;;;2.78;1.50;;;;;;;25.37;23.33;100674.00;5102093;28;20673;-69
2023/05/22 08:12:20;;;;;;;1.40;1.30;;;;;;;24.90;24.16;100683.91;5101978;28;20595;-69
2023/05/22 08:14:49;;;;;;;5.35;1.90;;;;;;;24.55;24.93;100681.59;5097212;28;20310;-67
2023/05/22 08:17:18;;;;;;;4.22;1.70;;;;;;;24.39;25.28;100680.81;5083118;28;20208;-67
2023/05/22 08:19:46;;;;;;;2.42;1.95;;;;;;;24.31;25.63;100673.34;5104414;28;20210;-69
2023/05/22 08:22:14;;;;;;;2.40;1.70;;;;;;;24.20;26.23;100672.28;5107187;28;20192;-71
2023/05/22 08:24:42;;;;;;;2.15;1.95;;;;;;;24.21;26.29;100668.72;5108471;28;20299;-68
2023/05/22 08:27:10;;;;;;;2.85;1.80;;;;;;;24.28;26.44;100665.63;5109891;28;20281;-66
2023/05/22 08:29:38;;;;;;;2.30;2.10;;;;;;;24.22;26.75;100658.06;5112630;28;20588;-67
2023/05/22 08:32:10;;;;;;;4.68;2.10;;;;;;;24.32;26.78;100666.28;5112574;28;20236;-66
2023/05/22 08:34:39;;;;;;;1.65;1.55;;;;;;;24.49;27.30;100668.81;5107225;28;20254;-69
2023/05/22 08:37:08;;;;;;;6.00;1.90;;;;;;;24.59;26.65;100662.03;5113066;28;20578;-68
2023/05/22 08:39:36;;;;;;;3.47;1.90;;;;;;;24.74;26.73;100660.28;5109923;28;20203;-68
2023/05/22 08:42:05;;;;;;;3.28;1.92;;;;;;;24.72;26.26;100663.94;5113329;28;20204;-67
2023/05/22 08:44:33;;;;;;;3.63;2.20;;;;;;;24.64;26.25;100660.94;5111572;28;20200;-65
2023/05/22 08:47:03;;;;;;;2.10;1.77;;;;;;;24.48;25.90;100648.66;5111764;28;20539;-70
2023/05/22 08:49:32;;;;;;;1.98;1.80;;;;;;;24.41;26.45;100667.56;5110335;28;20295;-70
2023/05/22 08:52:05;;;;;;;4.93;1.90;;;;;;;24.47;26.77;100652.22;5108464;28;20204;-69
2023/05/22 08:54:36;;;;;;;5.43;1.98;;;;;;;24.57;26.76;100656.03;5109723;28;20232;-70
2023/05/22 08:57:05;;;;;;;6.85;2.10;;;;;;;24.73;26.46;100655.94;5112400;28;20214;-71
2023/05/22 08:59:36;;;;;;;4.18;1.88;;;;;;;24.81;26.49;100660.72;5107740;28;20214;-69
2023/05/22 09:02:05;;;;;;;4.63;2.00;;;;;;;24.82;26.93;100647.47;5111021;28;20624;-70
2023/05/22 09:04:35;;;;;;;3.80;2.03;;;;;;;24.87;26.86;100647.19;5100421;28;20207;-69
2023/05/22 09:07:04;;;;;;;3.58;2.00;;;;;;;24.96;27.14;100651.88;5111351;28;20662;-73
2023/05/22 09:09:36;;;;;;;3.20;2.00;;;;;;;25.08;27.28;100654.72;5108245;28;20678;-69
2023/05/22 09:12:09;;;;;;;3.30;2.13;;;;;;;24.95;26.02;100650.19;5106218;28;20200;-70
2023/05/22 09:14:40;;;;;;;3.25;2.03;;;;;;;24.72;26.20;100637.59;5105961;28;20216;-73
2023/05/22 09:17:10;;;;;;;2.90;2.10;;;;;;;24.46;26.68;100637.38;5105605;28;20666;-69
2023/05/22 09:19:43;;;;;;;4.57;2.08;;;;;;;24.25;27.36;100644.72;5109274;28;20624;-71
2023/05/22 09:22:12;;;;;;;2.22;1.85;;;;;;;24.09;27.58;100642.16;5107057;28;20203;-70
2023/05/22 09:24:42;;;;;;;4.07;2.30;;;;;;;24.01;27.64;100638.28;5110734;28;20283;-72
2023/05/22 09:27:11;;;;;;;3.70;2.15;;;;;;;23.82;27.75;100631.44;5111522;28;20210;-69
2023/05/22 09:29:49;;;;;;;2.90;1.90;;;;;;;23.60;27.35;100634.41;5111209;28;20231;-69
2023/05/22 09:32:17;;;;;;;4.47;1.58;;;;;;;23.51;27.37;100624.41;5099989;28;20263;-70
2023/05/22 09:34:47;;;;;;;3.33;2.00;;;;;;;23.56;27.46;100624.13;5107882;28;20576;-69
2023/05/22 09:37:16;;;;;;;2.05;1.65;;;;;;;23.73;27.34;100616.16;5108625;28;20203;-67
2023/05/22 09:39:46;;;;;;;2.60;2.15;;;;;;;23.78;26.94;100623.78;5104899;28;20207;-69
2023/05/22 09:42:16;;;;;;;2.30;1.60;;;;;;;23.72;25.81;100619.75;5110438;28;20200;-64
2023/05/22 09:44:48;;;;;;;4.65;2.03;;;;;;;23.62;25.90;100623.78;5110348;28;20662;-64
2023/05/22 09:47:16;;;;;;;1.95;1.70;;;;;;;23.51;26.19;100616.50;5111934;28;20211;-71
2023/05/22 09:49:45;;;;;;;2.75;1.88;;;;;;;23.47;26.62;100625.50;5106576;28;20576;-73
2023/05/22 09:52:17;;;;;;;3.63;1.98;;;;;;;23.52;26.66;100620.81;5107515;28;20726;-70
2023/05/22 09:54:52;;;;;;;5.50;2.50;;;;;;;23.92;27.01;100620.38;5104444;28;20227;-68
2023/05/22 09:57:21;;;;;;;2.60;1.98;;;;;;;24.17;26.65;100625.06;5106028;28;20199;-74
2023/05/22 09:59:56;;;;;;;5.28;1.75;;;;;;;24.39;26.81;100614.97;5110759;28;20645;-66
2023/05/22 10:02:26;;;;;;;2.70;2.08;;;;;;;24.90;26.41;100612.72;5107825;28;20938;-69
2023/05/22 10:04:54;;;;;;;3.85;2.35;;;;;;;25.17;26.11;100618.09;5100549;28;20204;-69
2023/05/22 10:07:35;;;;;;;5.95;1.92;;;;;;;25.33;26.32;100617.94;5104819;27;20643;-70
2023/05/22 10:10:08;;;;;;;2.55;2.05;;;;;;;25.45;25.46;100617.19;5110780;28;20223;-69
2023/05/22 10:12:43;;;;;;;1.85;1.67;;;;;;;25.27;24.77;100613.09;5105013;27;20200;-71
2023/05/22 10:15:13;;;;;;;4.57;1.88;;;;;;;25.08;25.17;100617.81;5103781;28;20346;-68
2023/05/22 10:17:41;;;;;;;2.70;2.00;;;;;;;24.82;25.26;100602.66;5108087;28;20218;-69
2023/05/22 10:20:12;;;;;;;2.63;2.00;;;;;;;24.57;25.78;100608.59;5107751;28;20615;-69
2023/05/22 10:22:41;;;;;;;2.88;1.73;;;;;;;24.36;26.54;100607.22;5109703;28;20226;-70
2023/05/22 10:25:10;;;;;;;2.80;2.58;;;;;;;24.43;26.58;100605.94;5110691;28;20211;-69
2023/05/22 10:27:39;;;;;;;2.35;2.03;;;;;;;24.40;26.56;100600.84;5111514;28;20291;-71
2023/05/22 10:30:18;;;;;;;7.93;2.70;;;;;;;24.55;26.61;100604.34;5110475;28;20204;-69
2023/05/22 10:32:50;;;;;;;3.05;2.03;;;;;;;24.90;26.04;100607.47;5111529;28;20673;-71
2023/05/22 10:35:23;;;;;;;2.38;2.17;;;;;;;25.04;25.38;100596.91;5107363;28;20299;-71
2023/05/22 10:37:58;;;;;;;2.40;2.08;;;;;;;24.78;25.52;100598.53;5105269;28;20227;-71
2023/05/22 10:40:31;;;;;;;5.20;2.05;;;;;;;24.60;25.99;100607.56;5101456;28;20326;-72
2023/05/22 10:43:02;;;;;;;3.33;2.15;;;;;;;24.77;25.41;100596.81;5105131;28;20204;-69
2023/05/22 10:45:31;;;;;;;4.03;2.20;;;;;;;25.10;26.03;100597.44;5105329;28;22384;-71
2023/05/22 10:48:08;;;;;;;2.80;2.42;;;;;;;25.59;24.72;100599.59;5108785;28;20290;-69
2023/05/22 10:50:37;;;;;;;4.05;2.10;;;;;;;26.02;24.23;100594.97;5107332;28;20207;-69
2023/05/22 10:53:25;;;;;;;3.50;1.70;;;;;;;27.06;23.02;100593.03;5104115;28;20204;-69
2023/05/22 10:55:55;;;;;;;2.45;2.05;;;;;;;28.16;21.08;100581.44;5111521;28;20214;-69
2023/05/22 10:58:27;;;;;;;2.13;1.88;;;;;;;29.35;20.50;100579.16;5110178;28;20196;-71
2023/05/22 11:01:12;;;;;;;4.88;2.10;;;;;;;29.54;19.95;100581.13;5109490;28;20257;-69
2023/05/22 11:03:59;;;;;;;4.65;2.17;;;;;;;30.42;20.14;100579.97;5098619;28;20659;-70
2023/05/22 11:06:39;;;;;;;2.30;1.65;;;;;;;31.39;17.85;100564.28;5111377;28;20196;-74
2023/05/22 11:09:28;;;;;;;2.28;2.08;;;;;;;32.04;17.60;100570.75;5104760;28;20622;-70
2023/05/22 11:12:23;;;;;;;2.00;1.50;;;;;;;32.04;17.24;100564.56;5106465;28;20204;-72
2023/05/22 11:14:55;;;;;;;2.42;1.80;;;;;;;31.14;17.68;100569.13;5109956;28;20674;-70
2023/05/22 11:17:24;;;;;;;3.80;2.33;;;;;;;30.11;19.00;100571.91;5104568;28;20197;-71
2023/05/22 11:20:05;;;;;;;2.60;2.03;;;;;;;30.15;19.65;100560.03;5096654;28;20208;-72
2023/05/22 11:22:35;;;;;;;5.20;1.90;;;;;;;30.36;18.09;100553.88;5112472;28;20252;-71
2023/05/22 11:25:07;;;;;;;3.90;2.00;;;;;;;30.31;18.42;100552.47;5110596;28;20196;-72
2023/05/22 11:27:36;;;;;;;4.20;2.10;;;;;;;30.63;19.21;100566.59;5115159;28;20239;-72
2023/05/22 11:30:06;;;;;;;1.85;1.60;;;;;;;30.52;18.22;100554.22;5113304;28;20249;-71
2023/05/22 11:32:36;;;;;;;1.92;1.73;;;;;;;30.00;19.00;100542.75;5109385;28;20614;-72
2023/05/22 11:35:07;;;;;;;3.22;1.92;;;;;;;28.82;19.94;100555.94;5114759;28;20212;-68
2023/05/22 11:37:39;;;;;;;3.22;1.95;;;;;;;27.66;21.13;100547.19;5094837;28;20196;-72